createdAt,value
2018-11-25T00:01:48.985Z,21.29
2018-11-25T00:06:51.537Z,21.30
2018-11-25T00:11:54.124Z,21.28
2018-11-25T00:16:56.755Z,21.29
2018-11-25T00:21:59.533Z,21.28
2018-11-25T00:27:02.100Z,21.27
2018-11-25T00:32:04.812Z,21.26
2018-11-25T00:37:07.464Z,21.28
2018-11-25T00:42:10.008Z,21.27
2018-11-25T00:47:12.746Z,21.27
2018-11-25T00:52:15.395Z,21.27
2018-11-25T00:57:18.127Z,21.28
2018-11-25T01:02:20.763Z,21.27
2018-11-25T01:07:23.435Z,21.27
2018-11-25T01:12:26.003Z,21.27
2018-11-25T01:17:28.671Z,21.25
2018-11-25T01:22:31.247Z,21.25
2018-11-25T01:27:33.849Z,21.25
2018-11-25T01:32:36.481Z,21.22
2018-11-25T01:37:39.079Z,21.21
2018-11-25T01:42:41.700Z,21.22
2018-11-25T01:47:44.404Z,21.23
2018-11-25T01:52:47.110Z,21.23
2018-11-25T01:57:49.657Z,21.23
2018-11-25T02:02:52.283Z,21.24
2018-11-25T02:07:54.821Z,21.22
2018-11-25T02:12:57.368Z,21.21
2018-11-25T02:18:00.047Z,21.21
2018-11-25T02:23:02.707Z,21.20
2018-11-25T02:28:05.341Z,21.21
2018-11-25T02:33:07.955Z,21.18
2018-11-25T02:38:10.522Z,21.18
2018-11-25T02:43:14.014Z,21.16
2018-11-25T02:48:15.851Z,21.16
2018-11-25T02:53:18.403Z,21.14
2018-11-25T02:58:20.947Z,21.12
2018-11-25T03:03:23.501Z,21.12
2018-11-25T03:08:26.152Z,21.09
2018-11-25T03:13:28.691Z,21.09
2018-11-25T03:18:31.256Z,21.08
2018-11-25T03:23:33.806Z,21.08
2018-11-25T03:28:36.379Z,21.06
2018-11-25T03:33:38.966Z,21.05
2018-11-25T03:38:41.594Z,21.03
2018-11-25T03:43:44.171Z,21.03
2018-11-25T03:48:46.750Z,21.03
2018-11-25T03:53:49.309Z,21.02
2018-11-25T03:58:51.832Z,21.01
2018-11-25T04:03:54.447Z,21.02
2018-11-25T04:08:57.023Z,21.00
2018-11-25T04:13:59.636Z,20.98
2018-11-25T04:19:02.225Z,20.98
2018-11-25T04:24:04.800Z,20.95
2018-11-25T04:29:07.339Z,20.96
2018-11-25T04:34:09.880Z,20.93
2018-11-25T04:39:12.518Z,20.92
2018-11-25T04:44:15.063Z,20.92
2018-11-25T04:49:17.685Z,20.91
2018-11-25T04:54:20.254Z,20.88
2018-11-25T04:59:22.784Z,20.87
2018-11-25T05:04:25.315Z,20.88
2018-11-25T05:09:34.590Z,20.87
2018-11-25T05:14:37.259Z,20.86
2018-11-25T05:19:39.823Z,20.85
2018-11-25T05:24:42.467Z,20.84
2018-11-25T05:29:45.076Z,20.83
2018-11-25T05:34:47.635Z,20.83
2018-11-25T05:39:50.201Z,20.82
2018-11-25T05:44:52.757Z,20.82
2018-11-25T05:49:55.332Z,20.80
2018-11-25T05:54:57.954Z,20.79
2018-11-25T06:00:00.569Z,20.79
2018-11-25T06:05:03.449Z,20.78
2018-11-25T06:10:07.338Z,20.79
2018-11-25T06:15:10.502Z,20.78
2018-11-25T06:20:13.566Z,20.78
2018-11-25T06:25:16.791Z,20.77
2018-11-25T06:30:19.880Z,20.77
2018-11-25T06:35:22.440Z,20.77
2018-11-25T06:40:25.084Z,20.75
2018-11-25T06:45:28.285Z,20.76
2018-11-25T06:50:31.122Z,20.75
2018-11-25T06:55:33.907Z,20.73
2018-11-25T07:00:36.511Z,20.73
2018-11-25T07:05:39.098Z,20.71
2018-11-25T07:10:42.494Z,20.71
2018-11-25T07:15:45.150Z,20.72
2018-11-25T07:20:47.803Z,20.70
2018-11-25T07:25:50.395Z,20.68
2018-11-25T07:31:04.539Z,20.68
2018-11-25T07:36:07.081Z,20.69
2018-11-25T07:41:09.801Z,20.69
2018-11-25T07:46:12.697Z,20.70
2018-11-25T07:51:15.387Z,20.72
2018-11-25T07:56:17.964Z,20.73
2018-11-25T08:01:20.812Z,20.74
2018-11-25T08:06:23.479Z,19.94
2018-11-25T08:11:26.050Z,19.15
2018-11-25T08:16:28.607Z,18.80
2018-11-25T08:21:31.230Z,19.25
2018-11-25T08:26:34.261Z,19.86
2018-11-25T08:31:38.068Z,20.20
2018-11-25T08:36:40.961Z,20.39
2018-11-25T08:41:43.552Z,20.55
2018-11-25T08:46:46.237Z,20.64
2018-11-25T08:51:48.853Z,20.45
2018-11-25T08:56:51.459Z,20.50
2018-11-25T09:01:54.031Z,20.43
2018-11-25T09:06:56.642Z,20.43
2018-11-25T09:11:59.908Z,20.47
2018-11-25T09:17:03.114Z,20.48
2018-11-25T09:22:05.929Z,20.54
2018-11-25T09:27:08.479Z,20.53
2018-11-25T09:32:11.067Z,20.60
2018-11-25T09:37:13.859Z,20.52
2018-11-25T09:42:16.472Z,20.49
2018-11-25T09:47:19.099Z,20.62
2018-11-25T09:52:21.762Z,20.56
2018-11-25T09:57:24.372Z,20.55
2018-11-25T10:02:26.938Z,20.53
2018-11-25T10:07:29.953Z,20.53
2018-11-25T10:12:32.881Z,20.53
2018-11-25T10:17:35.537Z,20.55
2018-11-25T10:22:38.206Z,20.56
2018-11-25T10:27:40.900Z,20.54
2018-11-25T10:32:43.625Z,20.54
2018-11-25T10:37:46.222Z,20.55
2018-11-25T10:42:48.834Z,20.54
2018-11-25T10:47:51.435Z,20.57
2018-11-25T10:52:54.050Z,20.63
2018-11-25T10:57:56.645Z,20.73
2018-11-25T11:03:04.521Z,20.71
2018-11-25T11:08:07.424Z,20.81
2018-11-25T11:13:10.062Z,20.74
2018-11-25T11:18:12.660Z,20.82
2018-11-25T11:23:15.187Z,20.85
2018-11-25T11:28:45.376Z,20.89
2018-11-25T11:33:47.929Z,20.91
2018-11-25T11:38:50.672Z,21.06
2018-11-25T11:43:53.408Z,21.06
2018-11-25T11:48:56.123Z,21.11
2018-11-25T11:53:58.687Z,21.11
2018-11-25T11:59:01.225Z,20.94
2018-11-25T12:04:04.390Z,20.86
2018-11-25T12:09:08.913Z,20.94
2018-11-25T12:14:11.612Z,20.96
2018-11-25T12:19:14.509Z,20.95
2018-11-25T12:24:17.594Z,20.94
2018-11-25T12:29:20.174Z,20.96
2018-11-25T12:34:23.125Z,20.96
2018-11-25T12:39:28.519Z,20.97
2018-11-25T12:44:29.308Z,20.97
2018-11-25T12:49:31.878Z,20.90
2018-11-25T12:54:34.639Z,20.84
2018-11-25T12:59:37.413Z,20.86
2018-11-25T13:04:40.389Z,20.90
2018-11-25T13:09:43.230Z,20.94
2018-11-25T13:14:45.835Z,20.95
2018-11-25T13:19:48.420Z,20.95
2018-11-25T13:24:52.566Z,20.98
2018-11-25T13:29:55.458Z,20.98
2018-11-25T13:34:58.149Z,21.00
2018-11-25T13:40:02.405Z,20.99
2018-11-25T13:45:04.639Z,20.99
2018-11-25T13:50:07.960Z,20.99
2018-11-25T13:55:14.692Z,21.00
2018-11-25T14:00:20.423Z,21.00
2018-11-25T14:05:23.007Z,21.00
2018-11-25T14:10:30.185Z,20.98
2018-11-25T14:15:32.731Z,21.05
2018-11-25T14:20:35.427Z,21.02
2018-11-25T14:25:37.983Z,21.04
2018-11-25T14:30:40.608Z,21.12
2018-11-25T14:35:43.375Z,21.11
2018-11-25T14:40:46.304Z,21.10
2018-11-25T14:45:49.028Z,21.10
2018-11-25T14:50:51.882Z,21.10
2018-11-25T14:55:54.440Z,21.11
2018-11-25T15:00:57.137Z,21.11
2018-11-25T15:06:00.036Z,21.13
2018-11-25T15:11:02.645Z,21.17
2018-11-25T15:16:06.907Z,21.14
2018-11-25T15:21:10.036Z,21.06
2018-11-25T15:26:14.684Z,21.03
2018-11-25T15:31:17.322Z,21.00
2018-11-25T15:36:19.923Z,21.00
2018-11-25T15:41:23.979Z,21.00
2018-11-25T15:46:26.540Z,21.01
2018-11-25T15:51:29.186Z,21.02
2018-11-25T15:56:31.937Z,21.01
2018-11-25T16:01:34.355Z,21.00
2018-11-25T16:06:37.108Z,20.99
2018-11-25T16:11:39.729Z,21.00
2018-11-25T16:16:42.580Z,20.98
2018-11-25T16:21:45.172Z,20.99
2018-11-25T16:26:47.731Z,20.99
2018-11-25T16:31:50.290Z,21.08
2018-11-25T16:36:52.811Z,21.04
2018-11-25T16:41:55.367Z,20.97
2018-11-25T16:46:58.299Z,20.99
2018-11-25T16:52:01.981Z,21.04
2018-11-25T16:57:05.507Z,21.04
2018-11-25T17:02:08.411Z,21.17
2018-11-25T17:07:11.203Z,21.34
2018-11-25T17:12:14.051Z,21.67
2018-11-25T17:17:16.995Z,21.98
2018-11-25T17:22:19.666Z,22.13
2018-11-25T17:27:22.517Z,22.14
2018-11-25T17:32:25.319Z,22.15
2018-11-25T17:37:27.969Z,22.13
2018-11-25T17:42:30.946Z,22.06
2018-11-25T17:47:33.843Z,21.95
2018-11-25T17:52:36.431Z,21.96
2018-11-25T17:57:39.222Z,21.97
2018-11-25T18:02:42.165Z,22.08
2018-11-25T18:07:44.850Z,22.37
2018-11-25T18:12:47.656Z,22.49
2018-11-25T18:17:51.564Z,22.51
2018-11-25T18:22:54.243Z,22.45
2018-11-25T18:28:00.515Z,22.33
2018-11-25T18:32:59.510Z,22.17
2018-11-25T18:38:02.321Z,22.12
2018-11-25T18:43:05.475Z,22.10
2018-11-25T18:48:09.075Z,22.20
2018-11-25T18:53:11.919Z,22.40
2018-11-25T18:58:14.643Z,22.46
2018-11-25T19:03:17.274Z,22.44
2018-11-25T19:08:20.181Z,22.44
2018-11-25T19:13:24.189Z,22.32
2018-11-25T19:18:31.026Z,22.21
2018-11-25T19:23:34.123Z,22.12
2018-11-25T19:28:37.447Z,22.15
2018-11-25T19:33:41.169Z,22.13
2018-11-25T19:38:43.816Z,22.30
2018-11-25T19:43:46.855Z,22.15
2018-11-25T19:53:51.215Z,22.28
2018-11-25T19:58:57.987Z,22.25
2018-11-25T20:04:00.536Z,22.18
2018-11-25T20:09:04.012Z,22.08
2018-11-25T20:14:06.918Z,22.07
2018-11-25T20:19:09.931Z,22.03
2018-11-25T20:24:12.752Z,21.96
2018-11-25T20:29:16.098Z,21.98
2018-11-25T20:34:18.651Z,21.95
2018-11-25T20:39:26.591Z,21.95
2018-11-25T20:44:29.276Z,21.86
2018-11-25T20:49:33.584Z,21.80
2018-11-25T20:54:36.572Z,21.76
2018-11-25T20:59:39.320Z,21.74
2018-11-25T21:04:41.868Z,21.73
2018-11-25T21:09:44.411Z,21.69
2018-11-25T21:14:46.940Z,21.68
2018-11-25T21:19:53.774Z,21.65
2018-11-25T21:24:56.352Z,21.64
2018-11-25T21:29:58.917Z,21.63
2018-11-25T21:35:02.457Z,21.61
2018-11-25T21:40:07.670Z,21.58
2018-11-25T21:45:15.932Z,21.58
2018-11-25T22:02:23.256Z,21.54
2018-11-25T22:07:28.942Z,21.52
2018-11-25T22:12:31.490Z,21.53
2018-11-25T22:17:34.331Z,21.48
2018-11-25T22:22:36.940Z,21.47
2018-11-25T22:27:42.747Z,21.43
2018-11-25T22:32:47.587Z,21.44
2018-11-25T22:37:52.351Z,21.43
2018-11-25T22:43:06.843Z,21.41
2018-11-25T22:48:09.459Z,21.38
2018-11-25T22:53:12.075Z,21.35
2018-11-25T22:58:14.660Z,21.32
2018-11-25T23:03:17.193Z,21.29
2018-11-25T23:08:19.739Z,21.30
2018-11-25T23:13:22.290Z,21.27
2018-11-25T23:18:24.887Z,21.24
2018-11-25T23:23:27.408Z,21.22
2018-11-25T23:28:29.954Z,21.21
2018-11-25T23:33:32.667Z,21.28
2018-11-25T23:38:36.607Z,21.27
2018-11-25T23:43:40.197Z,21.26
2018-11-25T23:48:42.868Z,21.29
2018-11-25T23:53:45.419Z,21.29
2018-11-25T23:58:48.001Z,21.31
